Impacts METAR Board
IDs:

KDEN - Denver Intl, CO, US

Updated at: 2300 UTC 04 Jul 2022
Potential Impact None Slight Moderate High
Time 04/11Z 04/12Z 04/13Z 04/14Z 04/15Z 04/16Z 04/17Z 04/18Z 04/19Z 04/20Z 04/21Z 04/22Z 04/23Z
Temp66 67 69 73 78 82 86 88 91 93 93 95 93
Dewpt47 48 48 49 49 48 48 45 42 40 38 39 37
Altim29.99 30.01 30.03 30.04 30.05 30.06 30.06 30.06 30.05 30.04 30.03 30.01 30.00
VIS10 10 10 10 10 10 10 10 10 10 10 10 10
CIG-- 250 -- -- -- -- -- -- -- 200 100 150 160
CoverFEWBKNSCTSCTSCTFEWFEWFEWSCTBKNBKNBKNBKN
FltCatVFRVFRVFRVFRVFRVFRVFRVFRVFRVFRVFRVFRVFR
WX--------------------------
WDir2502702502202300003503005070
WSpd10 6 8 9 8 3 4 6 7 9 3 10 8
WGst-- -- -- -- -- -- -- -- 16 -- -- 15 --
Raw hourly METARs
KDEN 041053Z 25010KT 10SM FEW220 19/08 A2999 RMK AO2 SLP064 T01890083
KDEN 041153Z 27006KT 10SM FEW080 SCT180 BKN250 19/09 A3001 RMK AO2 SLP078 T01940089 10222 20189 53014
KDEN 041253Z 25008KT 10SM FEW080 SCT190 SCT220 21/09 A3003 RMK AO2 SLP088 T02060089
KDEN 041353Z 22009KT 10SM FEW080 FEW180 SCT220 23/09 A3004 RMK AO2 SLP089 T02280094
KDEN 041453Z 23008KT 10SM FEW080 FEW180 SCT220 26/09 A3005 RMK AO2 SLP089 T02560094 51012
KDEN 041553Z VRB03KT 10SM FEW080 FEW180 FEW220 28/09 A3006 RMK AO2 SLP089 T02780089
KDEN 041653Z VRB04KT 10SM FEW090 FEW220 30/09 A3006 RMK AO2 SLP086 T03000089
KDEN 041753Z VRB06KT 10SM FEW095 FEW220 31/07 A3006 RMK AO2 SLP083 T03110072 10322 20189 50001
KDEN 041853Z 35007G16KT 310V080 10SM SCT100 SCT220 33/06 A3005 RMK AO2 SLP079 T03280056
KDEN 041953Z 03009KT 10SM SCT100 SCT150 BKN200 34/04 A3004 RMK AO2 SLP073 TCU DSNT N AND W T03390044
KDEN 042053Z VRB03KT 10SM BKN100 BKN150 BKN200 34/03 A3003 RMK AO2 SLP069 T03390033 58009
KDEN 042153Z 05010G15KT 10SM SCT100 BKN150 BKN220 35/04 A3001 RMK AO2 SLP064 T03500039
KDEN 042253Z 07008KT 10SM SCT110 BKN160 BKN220 34/03 A3000 RMK AO2 SLP065 T03390028



Page loaded:  23:35 UTC  |   04:35 PM Pacific  |   05:35 PM Mountain  |   06:35 PM Central  |   07:35 PM Eastern

 

ADVISORIES

FORECASTS

FORECASTS

OBSERVATIONS

USER TOOLS

ABOUT US